Time;durP1;ratioP1;P1;durP2;ratioP2;P2;SDS_P1;SDS_P2;PMS_P1;PMS_P2;Temp;Humidity;BMP_temperature;BMP_pressure;BME280_temperature;BME280_humidity;BME280_pressure;Samples;Min_cycle;Max_cycle;Signal;HPM_P1;HPM_P2
2023/01/13 00:00:23;;;;;;;0.77;0.77;;;;;;;3.29;80.33;99623.19;4438556;32;32703;-73
2023/01/13 00:02:51;;;;;;;4.32;3.97;;;;;;;3.03;81.42;99623.44;4439467;32;34836;-71
2023/01/13 00:05:19;;;;;;;1.45;1.35;;;;;;;3.29;79.20;99625.75;4439387;32;35975;-71
2023/01/13 00:07:48;;;;;;;1.60;1.50;;;;;;;3.04;79.74;99617.47;4439503;32;34635;-72
2023/01/13 00:10:17;;;;;;;0.85;0.85;;;;;;;3.18;79.31;99621.22;4439370;32;34351;-72
2023/01/13 00:12:45;;;;;;;1.48;1.42;;;;;;;3.11;78.61;99616.78;4438433;32;33865;-72
2023/01/13 00:15:13;;;;;;;3.37;2.25;;;;;;;3.58;75.88;99619.56;4439435;32;35913;-72
2023/01/13 00:17:41;;;;;;;0.70;0.70;;;;;;;2.34;81.70;99624.25;4439373;32;34624;-72
2023/01/13 00:20:10;;;;;;;1.00;1.00;;;;;;;2.98;78.65;99615.62;4439268;32;33509;-72
2023/01/13 00:22:38;;;;;;;1.73;1.23;;;;;;;3.32;77.28;99620.66;4439296;32;33871;-72
2023/01/13 00:25:07;;;;;;;3.12;2.53;;;;;;;2.56;81.03;99618.84;4438977;32;35023;-72
2023/01/13 00:27:35;;;;;;;2.15;2.03;;;;;;;2.94;80.51;99612.91;4439310;32;34544;-73
2023/01/13 00:30:04;;;;;;;0.98;0.98;;;;;;;2.50;81.09;99615.25;4439314;32;34234;-72
2023/01/13 00:32:33;;;;;;;2.15;2.05;;;;;;;2.01;82.04;99615.66;4438182;32;33880;-72
2023/01/13 00:35:01;;;;;;;1.25;1.15;;;;;;;1.90;82.72;99622.19;4439167;32;35886;-72
2023/01/13 00:37:29;;;;;;;4.95;3.62;;;;;;;2.15;82.25;99623.72;4439138;32;34427;-72
2023/01/13 00:39:57;;;;;;;0.70;0.70;;;;;;;2.48;81.01;99617.78;4439107;32;33795;-72
2023/01/13 00:45:12;;;;;;;;;;;;;;;2.13;81.93;99620.25;4439486;32;35060;-72
2023/01/13 00:47:40;;;;;;;1.65;1.55;;;;;;;2.72;79.79;99614.97;4439150;32;34634;-72
2023/01/13 00:50:08;;;;;;;2.83;1.95;;;;;;;2.78;78.60;99611.69;4439078;32;33420;-72
2023/01/13 00:52:37;;;;;;;0.85;0.85;;;;;;;2.53;80.38;99612.75;4439068;32;33877;-73
2023/01/13 00:55:08;;;;;;;4.25;2.30;;;;;;;1.79;85.26;99614.19;4439022;32;36029;-72
2023/01/13 00:57:36;;;;;;;0.98;0.98;;;;;;;2.04;84.74;99613.16;4438934;32;35061;-73
2023/01/13 01:00:04;;;;;;;0.70;0.70;;;;;;;2.15;82.63;99607.47;4438870;32;33572;-73
2023/01/13 01:02:32;;;;;;;1.55;1.48;;;;;;;2.71;80.06;99602.94;4438895;32;33883;-73
2023/01/13 01:05:00;;;;;;;1.02;1.02;;;;;;;2.75;79.46;99603.88;4438951;32;34998;-72
2023/01/13 01:07:29;;;;;;;2.62;2.50;;;;;;;2.79;78.83;99605.72;4438893;32;34354;-72
2023/01/13 01:09:57;;;;;;;1.00;1.00;;;;;;;2.85;77.99;99601.56;4438830;32;34288;-72
2023/01/13 01:12:25;;;;;;;1.85;1.75;;;;;;;2.04;82.14;99600.31;4438761;32;33917;-73
2023/01/13 01:14:53;;;;;;;0.80;0.80;;;;;;;1.93;83.68;99590.59;4438721;32;35155;-73
2023/01/13 01:17:21;;;;;;;2.37;2.25;;;;;;;2.09;83.22;99593.62;4438725;32;34604;-72
2023/01/13 01:19:49;;;;;;;1.50;1.42;;;;;;;2.46;81.27;99588.59;4438757;32;33512;-72
2023/01/13 01:22:17;;;;;;;1.17;1.17;;;;;;;2.25;82.32;99589.75;4438689;32;34005;-73
2023/01/13 01:24:46;;;;;;;1.48;1.17;;;;;;;2.20;82.65;99590.47;4443073;32;35933;-73
2023/01/13 01:27:14;;;;;;;2.03;1.62;;;;;;;2.08;83.55;99584.19;4443468;32;34562;-73
2023/01/13 01:29:43;;;;;;;0.70;0.70;;;;;;;2.62;81.55;99588.16;4443845;32;33610;-73
2023/01/13 01:32:11;;;;;;;0.95;0.95;;;;;;;2.54;81.49;99587.09;4443762;32;33737;-72
2023/01/13 01:34:39;;;;;;;2.97;2.37;;;;;;;1.94;83.91;99588.06;4443616;32;35890;-72
2023/01/13 01:37:07;;;;;;;1.83;1.73;;;;;;;2.65;81.47;99584.78;4443598;32;35322;-72
2023/01/13 01:39:35;;;;;;;1.50;1.45;;;;;;;2.36;81.88;99579.75;4443614;32;33505;-73
2023/01/13 01:45:00;;;;;;;;;;;;;;;2.68;81.28;99571.12;4443918;32;35137;-72
2023/01/13 01:47:30;;;;;;;1.12;1.12;;;;;;;3.12;79.42;99571.31;4443523;32;35548;-72
2023/01/13 01:50:01;;;;;;;1.17;1.12;;;;;;;2.36;82.35;99572.06;4443483;32;32701;-72
2023/01/13 01:52:31;;;;;;;1.35;1.25;;;;;;;2.44;83.30;99570.56;4442327;32;32977;-73
2023/01/13 01:55:05;;;;;;;8.45;3.60;;;;;;;2.05;84.00;99566.13;4443308;32;34357;-71
2023/01/13 01:57:36;;;;;;;1.25;1.25;;;;;;;2.04;84.13;99571.22;4442233;32;35228;-73
2023/01/13 02:00:05;;;;;;;0.85;0.85;;;;;;;2.56;82.18;99562.28;4443358;32;33449;-73
2023/01/13 02:02:39;;;;;;;1.10;1.10;;;;;;;2.74;81.23;99561.88;4442146;32;34035;-72
2023/01/13 02:05:07;;;;;;;0.93;0.88;;;;;;;2.36;82.69;99566.91;4441999;32;35188;-72
2023/01/13 02:07:38;;;;;;;2.95;2.78;;;;;;;2.16;85.08;99557.84;4443177;32;34327;-73
2023/01/13 02:10:09;;;;;;;2.83;2.55;;;;;;;2.91;82.68;99561.41;4442148;32;32627;-72
2023/01/13 02:12:39;;;;;;;2.17;2.08;;;;;;;3.27;80.49;99561.38;4443166;32;34545;-72
2023/01/13 02:15:15;;;;;;;2.03;1.92;;;;;;;3.23;80.47;99552.72;4441946;32;34571;-73
2023/01/13 02:18:31;;;;;;;2.45;2.35;;;;;;;3.38;79.54;99551.31;4441974;32;34976;-73
2023/01/13 02:21:31;;;;;;;5.20;3.80;;;;;;;3.48;77.58;99547.25;4428741;32;34281;-72
2023/01/13 02:27:17;;;;;;;1.25;1.25;;;;;;;2.56;83.97;99539.16;4441045;32;35678;-72
2023/01/13 02:32:44;;;;;;;1.98;1.85;;;;;;;2.71;82.26;99538.66;4442822;32;33644;-72
2023/01/13 02:35:44;;;;;;;1.62;1.55;;;;;;;2.96;82.72;99536.66;4441082;32;33916;-73
2023/01/13 02:38:13;;;;;;;0.80;0.80;;;;;;;3.25;80.25;99544.16;4440028;32;35008;-72
2023/01/13 02:40:55;;;;;;;2.35;2.12;;;;;;;3.17;82.27;99541.41;4439906;32;34361;-72
2023/01/13 02:46:27;;;;;;;1.27;1.17;;;;;;;3.38;80.55;99538.44;4438979;32;34705;-72
2023/01/13 02:48:56;;;;;;;2.22;1.80;;;;;;;2.33;85.72;99540.28;4438820;32;35111;-72
2023/01/13 02:51:26;;;;;;;4.12;3.72;;;;;;;2.12;90.32;99538.00;4438635;32;35264;-72
2023/01/13 02:54:00;;;;;;;3.30;3.12;;;;;;;3.32;83.51;99528.91;4438853;32;33464;-73
2023/01/13 02:56:30;;;;;;;0.93;0.93;;;;;;;3.43;80.87;99521.41;4438804;32;34044;-72
2023/01/13 02:58:59;;;;;;;1.40;1.40;;;;;;;2.50;84.68;99527.84;4451507;32;35065;-72
2023/01/13 03:01:27;;;;;;;3.97;2.72;;;;;;;2.66;85.07;99517.09;4438862;32;34519;-73
2023/01/13 03:03:55;;;;;;;7.57;4.35;;;;;;;2.96;83.34;99518.66;4438664;32;33547;-72
2023/01/13 03:06:44;;;;;;;1.65;1.55;;;;;;;3.40;80.24;99516.19;4439797;32;33872;-73
2023/01/13 03:09:30;;;;;;;1.45;1.35;;;;;;;2.69;83.67;99513.75;4434448;32;34924;-73
2023/01/13 03:12:14;;;;;;;5.27;2.63;;;;;;;2.87;83.47;99513.31;4438726;32;35261;-72
2023/01/13 03:14:59;;;;;;;1.40;1.40;;;;;;;2.83;84.41;99512.38;4439875;32;34379;-73
2023/01/13 03:17:43;;;;;;;1.12;1.12;;;;;;;3.55;80.10;99511.34;4438659;32;33844;-73
2023/01/13 03:20:17;;;;;;;1.30;1.25;;;;;;;2.90;82.83;99513.37;4439678;32;34922;-72
2023/01/13 03:22:52;;;;;;;2.10;2.00;;;;;;;3.22;81.60;99506.37;4439802;32;34327;-73
2023/01/13 03:25:24;;;;;;;0.93;0.93;;;;;;;3.06;82.43;99505.16;4439811;32;33577;-73
2023/01/13 03:27:56;;;;;;;0.70;0.70;;;;;;;2.50;85.62;99512.44;4424441;32;34024;-73
2023/01/13 03:30:25;;;;;;;1.85;1.75;;;;;;;2.45;87.91;99504.59;4423251;32;35083;-73
2023/01/13 03:32:58;;;;;;;1.17;1.17;;;;;;;3.36;83.06;99498.94;4424431;32;34407;-73
2023/01/13 03:35:31;;;;;;;10.25;2.53;;;;;;;3.47;81.79;99502.59;4423338;32;33336;-73
2023/01/13 03:38:04;;;;;;;4.90;4.55;;;;;;;3.57;80.69;99496.78;4423163;32;34024;-72
2023/01/13 03:40:37;;;;;;;0.93;0.93;;;;;;;2.90;82.72;99503.97;4424209;32;34956;-72
2023/01/13 03:46:02;;;;;;;1.87;1.67;;;;;;;2.41;86.41;99498.50;4423092;32;33046;-73
2023/01/13 03:48:31;;;;;;;2.97;1.83;;;;;;;2.65;85.71;99498.25;4423471;32;34738;-72
2023/01/13 03:51:06;;;;;;;1.87;1.77;;;;;;;2.79;84.56;99503.72;4423004;32;35693;-72
2023/01/13 03:53:39;;;;;;;1.52;1.45;;;;;;;3.55;80.72;99490.75;4423035;32;34425;-73
2023/01/13 03:56:59;;;;;;;0.70;0.70;;;;;;;2.70;84.40;99498.37;4423160;32;33646;-72
2023/01/13 03:59:33;;;;;;;1.02;0.98;;;;;;;3.11;83.99;99497.56;4414004;32;34649;-72
2023/01/13 04:02:20;;;;;;;0.60;0.60;;;;;;;3.07;83.32;99495.72;4424072;32;34992;-72
2023/01/13 04:04:54;;;;;;;0.80;0.80;;;;;;;3.13;83.16;99491.59;4424063;32;34489;-72
2023/01/13 04:07:41;;;;;;;1.70;1.62;;;;;;;2.78;84.23;99503.69;4423031;32;33611;-73
2023/01/13 04:10:11;;;;;;;1.02;1.00;;;;;;;2.76;85.26;99506.22;4424092;32;33807;-72
2023/01/13 04:12:59;;;;;;;1.33;1.25;;;;;;;2.80;85.85;99497.72;4422923;32;35858;-72
2023/01/13 04:15:36;;;;;;;1.73;1.62;;;;;;;3.59;81.69;99492.53;4424123;32;34700;-73
2023/01/13 04:18:10;;;;;;;0.80;0.80;;;;;;;2.85;83.90;99497.84;4424083;32;33515;-72
2023/01/13 04:20:39;;;;;;;2.05;1.85;;;;;;;2.90;84.33;99503.09;4423976;32;33943;-72
2023/01/13 04:23:08;;;;;;;1.25;1.17;;;;;;;3.28;83.85;99500.47;4422830;32;35744;-73
2023/01/13 04:25:36;;;;;;;2.10;1.92;;;;;;;3.89;79.67;99496.53;4424176;32;34418;-73
2023/01/13 04:28:05;;;;;;;4.53;4.15;;;;;;;3.73;79.33;99497.97;4439408;32;33447;-73
2023/01/13 04:30:33;;;;;;;1.42;1.40;;;;;;;2.81;85.28;99509.75;4439277;32;33931;-72
2023/01/13 04:33:02;;;;;;;3.40;2.53;;;;;;;3.03;85.04;99510.22;4439196;32;35056;-72
2023/01/13 04:35:32;;;;;;;1.60;1.52;;;;;;;3.15;84.54;99504.50;4437987;32;34529;-72
2023/01/13 04:38:11;;;;;;;1.12;1.12;;;;;;;3.25;84.05;99510.69;4438055;32;34183;-72
2023/01/13 04:40:40;;;;;;;0.95;0.95;;;;;;;3.23;84.82;99508.97;4438052;32;34041;-72
2023/01/13 04:43:09;;;;;;;1.73;1.62;;;;;;;2.75;87.43;99511.31;4437997;32;35048;-73
2023/01/13 04:45:37;;;;;;;5.05;4.12;;;;;;;2.87;87.71;99510.72;4439194;32;34386;-73
2023/01/13 04:48:05;;;;;;;3.03;2.58;;;;;;;2.69;87.97;99514.63;4438038;32;34242;-72
2023/01/13 04:50:33;;;;;;;1.02;1.02;;;;;;;2.54;87.73;99506.53;4439063;32;33917;-73
2023/01/13 04:53:01;;;;;;;1.00;1.00;;;;;;;2.17;90.03;99508.19;4439046;32;35121;-73
2023/01/13 04:55:30;;;;;;;1.52;1.37;;;;;;;2.94;86.49;99502.31;4438985;32;34467;-72
2023/01/13 04:58:06;;;;;;;2.80;2.60;;;;;;;2.63;87.01;99501.62;4437261;32;33832;-73
2023/01/13 05:00:36;;;;;;;2.28;2.12;;;;;;;3.40;83.66;99503.31;4437855;32;33742;-73
2023/01/13 05:03:04;;;;;;;3.12;2.85;;;;;;;2.39;85.93;99497.63;4437710;32;34998;-72
2023/01/13 05:05:32;;;;;;;4.43;4.07;;;;;;;2.64;86.55;99508.50;4437847;32;34353;-72
2023/01/13 05:08:00;;;;;;;1.65;1.30;;;;;;;2.51;87.18;99509.91;4438919;32;33456;-72
2023/01/13 05:10:28;;;;;;;0.93;0.93;;;;;;;2.71;85.53;99512.94;4437786;32;33198;-73
2023/01/13 05:16:58;;;;;;;;;;;;;;;3.42;83.04;99509.34;4439079;32;35336;-72
2023/01/13 05:18:49;;;;;;;4.15;3.05;;;;;;;3.58;80.29;99518.25;4438705;32;33521;-72
2023/01/13 05:26:51;;;;;;;;;;;;;;;2.62;85.61;99529.00;4438903;32;35363;-73
2023/01/13 05:29:19;;;;;;;8.18;4.37;;;;;;;2.92;85.62;99532.28;4438822;32;33475;-73
2023/01/13 05:31:47;;;;;;;5.68;3.55;;;;;;;3.54;81.14;99534.50;4438545;32;34683;-73
2023/01/13 05:34:15;;;;;;;3.60;3.40;;;;;;;3.22;82.09;99526.94;4438507;32;35178;-73
2023/01/13 05:36:43;;;;;;;1.60;1.50;;;;;;;3.34;81.46;99532.38;4438496;32;34579;-73
2023/01/13 05:39:11;;;;;;;3.05;2.85;;;;;;;3.30;81.08;99532.25;4438554;32;33390;-72
2023/01/13 05:44:26;;;;;;;18.85;2.45;;;;;;;2.86;82.78;99543.31;4438438;32;35075;-73
2023/01/13 05:46:54;;;;;;;2.20;1.95;;;;;;;2.50;84.91;99533.00;4438290;32;35303;-72
2023/01/13 05:49:23;;;;;;;2.85;2.00;;;;;;;2.37;87.31;99532.69;4438374;32;34553;-72
2023/01/13 05:51:51;;;;;;;1.25;1.20;;;;;;;2.66;85.22;99529.97;4438316;32;34753;-72
2023/01/13 05:54:19;;;;;;;1.35;0.77;;;;;;;1.96;88.59;99527.34;4438252;32;34999;-72
2023/01/13 05:56:47;;;;;;;0.90;0.90;;;;;;;2.32;88.12;99528.28;4438240;32;35080;-73
2023/01/13 05:59:15;;;;;;;3.40;3.20;;;;;;;2.90;86.54;99527.09;4438358;32;33487;-72
2023/01/13 06:01:43;;;;;;;1.15;1.10;;;;;;;2.75;85.12;99525.03;4438052;32;33997;-72
2023/01/13 06:04:12;;;;;;;6.05;2.75;;;;;;;2.41;85.55;99523.34;4436923;32;34912;-72
2023/01/13 06:06:42;;;;;;;1.40;1.23;;;;;;;3.03;83.08;99523.97;4438085;32;34311;-72
2023/01/13 06:09:10;;;;;;;1.95;1.85;;;;;;;3.43;80.37;99516.25;4438002;32;34288;-72
2023/01/13 06:11:38;;;;;;;0.90;0.90;;;;;;;3.47;79.32;99522.31;4439678;32;33884;-72
2023/01/13 06:14:06;;;;;;;0.80;0.80;;;;;;;3.25;79.43;99518.41;4440116;32;35118;-72
2023/01/13 06:16:34;;;;;;;2.85;2.65;;;;;;;2.57;82.37;99524.59;4440225;32;35155;-73
2023/01/13 06:19:07;;;;;;;2.08;1.45;;;;;;;2.93;81.07;99528.87;4440184;32;33375;-72
2023/01/13 06:21:35;;;;;;;1.90;1.50;;;;;;;2.94;80.51;99525.47;4440095;32;34024;-72
2023/01/13 06:24:05;;;;;;;1.10;1.10;;;;;;;2.30;82.62;99530.78;4440048;32;35034;-72
2023/01/13 06:26:37;;;;;;;1.02;1.02;;;;;;;2.37;83.62;99529.25;4438994;32;35166;-73
2023/01/13 06:29:07;;;;;;;0.77;0.77;;;;;;;2.12;84.37;99535.44;4451700;32;33467;-72
2023/01/13 06:31:37;;;;;;;2.05;1.98;;;;;;;2.33;83.86;99527.41;4439077;32;33925;-72
2023/01/13 06:34:12;;;;;;;1.42;1.40;;;;;;;1.59;86.21;99531.47;4440482;32;35010;-73
2023/01/13 06:36:46;;;;;;;1.15;1.10;;;;;;;1.38;88.03;99528.25;4438913;32;34388;-75
2023/01/13 06:39:17;;;;;;;1.17;1.15;;;;;;;1.65;87.63;99533.34;4438990;32;34546;-72
2023/01/13 06:44:34;;;;;;;0.95;0.95;;;;;;;2.47;83.61;99524.38;4439984;32;35934;-72
2023/01/13 06:47:02;;;;;;;5.07;3.37;;;;;;;2.33;84.64;99530.88;4439965;32;34228;-72
2023/01/13 06:49:30;;;;;;;0.85;0.85;;;;;;;2.96;81.55;99545.22;4438751;32;33559;-72
2023/01/13 06:51:59;;;;;;;2.83;2.67;;;;;;;2.78;82.07;99543.09;4438761;32;33890;-73
2023/01/13 06:54:27;;;;;;;5.10;3.97;;;;;;;2.43;84.23;99549.97;4439931;32;35894;-72
2023/01/13 06:56:55;;;;;;;1.90;1.75;;;;;;;2.26;86.63;99550.41;4439962;32;34401;-72
2023/01/13 06:59:24;;;;;;;1.15;1.15;;;;;;;2.42;86.49;99558.50;4439972;32;33507;-72
2023/01/13 07:01:52;;;;;;;2.97;2.50;;;;;;;2.43;86.64;99553.38;4439730;32;33900;-72
2023/01/13 07:04:20;;;;;;;2.12;2.03;;;;;;;2.06;90.72;99551.56;4439784;32;34840;-72
2023/01/13 07:06:48;;;;;;;1.25;1.25;;;;;;;2.52;88.77;99557.03;4439841;32;34382;-72
2023/01/13 07:09:16;;;;;;;1.27;1.27;;;;;;;2.73;88.23;99547.25;4439915;32;33461;-72
2023/01/13 07:11:45;;;;;;;1.20;1.20;;;;;;;3.17;86.35;99565.44;4439831;32;34718;-72
2023/01/13 07:17:00;;;;;;;1.42;1.35;;;;;;;3.30;86.70;99555.41;4439801;32;35231;-73
2023/01/13 07:19:28;;;;;;;1.08;1.08;;;;;;;3.91;84.74;99545.53;4439848;32;33744;-72
2023/01/13 07:21:57;;;;;;;1.35;1.25;;;;;;;3.63;85.42;99538.97;4439400;32;34570;-72
2023/01/13 07:24:25;;;;;;;2.08;1.98;;;;;;;3.89;85.16;99535.19;4439604;32;35746;-72
2023/01/13 07:26:53;;;;;;;1.58;1.37;;;;;;;3.29;87.65;99544.25;4438304;32;34544;-72
2023/01/13 07:29:21;;;;;;;2.10;2.00;;;;;;;3.80;86.70;99541.03;4440527;32;33842;-72
2023/01/13 07:31:49;;;;;;;3.17;2.87;;;;;;;3.04;87.88;99550.56;4437241;32;33983;-72
2023/01/13 07:34:18;;;;;;;4.55;4.15;;;;;;;2.69;90.00;99544.59;4422159;32;35166;-73
2023/01/13 07:36:47;;;;;;;2.30;2.10;;;;;;;2.59;93.11;99548.63;4424104;32;35389;-73
2023/01/13 07:39:15;;;;;;;10.93;3.87;;;;;;;3.70;88.46;99546.81;4422997;32;34241;-73
2023/01/13 07:44:30;;;;;;;5.57;2.60;;;;;;;3.92;85.63;99547.28;4424447;32;35092;-71
2023/01/13 07:46:58;;;;;;;1.27;1.27;;;;;;;3.72;86.05;99549.44;4423961;32;34363;-71
2023/01/13 07:49:26;;;;;;;3.80;2.55;;;;;;;3.61;87.63;99550.09;4424102;32;33575;-72
2023/01/13 07:51:54;;;;;;;3.12;2.33;;;;;;;3.59;87.76;99554.34;4423897;32;34705;-72
2023/01/13 07:54:23;;;;;;;7.40;4.25;;;;;;;3.93;87.18;99555.00;4424006;32;35025;-70
2023/01/13 07:57:07;;;;;;;0.60;0.60;;;;;;;4.23;86.69;99563.31;4424008;32;34467;-72
2023/01/13 07:59:35;;;;;;;1.23;1.23;;;;;;;3.31;88.29;99568.31;4422851;32;34187;-72
2023/01/13 08:02:03;;;;;;;2.37;2.22;;;;;;;2.95;90.98;99568.38;4423718;32;33964;-72
2023/01/13 08:04:32;;;;;;;2.85;2.65;;;;;;;2.91;91.59;99569.13;4423886;32;35121;-72
2023/01/13 08:07:01;;;;;;;1.85;1.25;;;;;;;3.12;91.21;99566.19;4424110;32;34413;-70
2023/01/13 08:09:29;;;;;;;4.43;4.12;;;;;;;3.65;90.61;99576.75;4423948;32;33374;-71
2023/01/13 08:14:49;;;;;;;1.40;1.30;;;;;;;4.04;86.87;99585.28;4422916;32;35041;-73
2023/01/13 08:17:18;;;;;;;2.25;2.05;;;;;;;3.85;88.43;99581.44;4423849;32;35186;-74
2023/01/13 08:19:48;;;;;;;0.90;0.90;;;;;;;3.39;91.38;99586.53;4423771;32;33516;-71
2023/01/13 08:22:17;;;;;;;6.87;2.80;;;;;;;3.81;90.48;99580.53;4408049;32;34855;-73
2023/01/13 08:24:47;;;;;;;3.87;3.30;;;;;;;4.10;88.97;99578.53;4408651;32;36029;-72
2023/01/13 08:27:19;;;;;;;1.90;1.80;;;;;;;4.61;87.13;99587.19;4422517;32;35236;-73
2023/01/13 08:29:47;;;;;;;3.28;3.00;;;;;;;4.56;86.99;99587.09;4423853;32;33443;-72
2023/01/13 08:32:16;;;;;;;1.23;1.20;;;;;;;4.64;87.80;99589.84;4423467;32;33841;-73
2023/01/13 08:34:45;;;;;;;3.65;2.08;;;;;;;4.39;88.08;99585.94;4423177;32;35313;-73
2023/01/13 08:37:14;;;;;;;2.50;1.95;;;;;;;4.27;88.22;99591.75;4423684;32;34433;-71
2023/01/13 08:39:44;;;;;;;2.65;1.73;;;;;;;4.60;85.47;99595.75;4422582;32;34299;-72
2023/01/13 08:42:12;;;;;;;2.97;2.78;;;;;;;4.58;86.11;99600.03;4423562;32;34014;-71
2023/01/13 08:44:41;;;;;;;2.42;1.10;;;;;;;4.77;86.12;99595.19;4423429;32;35006;-72
2023/01/13 08:47:10;;;;;;;1.20;1.20;;;;;;;4.45;87.35;99604.09;4423543;32;35022;-72
2023/01/13 08:49:40;;;;;;;2.25;2.10;;;;;;;4.46;86.88;99608.41;4423616;32;34307;-74
2023/01/13 08:52:20;;;;;;;2.30;2.10;;;;;;;4.65;86.14;99609.59;4409849;32;32462;-73
2023/01/13 08:54:52;;;;;;;2.55;2.35;;;;;;;4.48;86.67;99618.75;4394994;32;35047;-71
2023/01/13 08:57:21;;;;;;;2.97;2.78;;;;;;;4.31;87.17;99619.31;4421636;32;34029;-72
2023/01/13 08:59:50;;;;;;;3.70;3.45;;;;;;;4.41;86.21;99614.31;4422416;32;34184;-71
2023/01/13 09:02:20;;;;;;;1.23;1.17;;;;;;;4.42;86.14;99611.78;4397654;32;33787;-73
2023/01/13 09:04:50;;;;;;;1.12;1.12;;;;;;;4.47;86.25;99622.19;4407038;32;35933;-73
2023/01/13 09:07:21;;;;;;;1.40;1.33;;;;;;;3.85;88.17;99618.41;4421235;32;34434;-73
2023/01/13 09:09:55;;;;;;;3.80;3.50;;;;;;;4.09;88.66;99619.72;4422129;32;33591;-72
2023/01/13 09:15:29;;;;;;;0.70;0.70;;;;;;;4.39;88.36;99600.53;4409204;32;35284;-72
2023/01/13 09:18:19;;;;;;;2.15;2.05;;;;;;;5.07;84.76;99602.56;4422087;32;36525;-71
2023/01/13 09:22:14;;;;;;;2.25;1.90;;;;;;;5.18;85.63;99595.84;4431439;32;34275;-72
2023/01/13 09:26:11;;;;;;;2.87;2.67;;;;;;;4.56;88.30;99599.13;4418191;32;35199;-72
2023/01/13 09:29:00;;;;;;;1.15;1.12;;;;;;;5.01;84.68;99608.50;4811969;27;35184;-69
2023/01/13 09:31:28;;;;;;;1.67;1.58;;;;;;;4.76;86.78;99612.37;4438624;32;34131;-78
2023/01/13 09:36:47;;;;;;;1.90;1.80;;;;;;;4.92;84.24;99598.00;4438663;32;33829;-68
2023/01/13 09:39:16;;;;;;;0.80;0.80;;;;;;;5.32;82.64;99598.63;4436959;32;34648;-74
2023/01/13 09:45:06;;;;;;;8.63;4.37;;;;;;;5.33;80.98;99592.62;4438925;32;34258;-64
2023/01/13 09:47:50;;;;;;;1.65;1.08;;;;;;;5.09;82.72;99581.09;4439298;32;33994;-72
2023/01/13 09:50:40;;;;;;;1.58;1.48;;;;;;;4.93;82.15;99579.13;4440229;32;35935;-73
2023/01/13 09:53:14;;;;;;;1.62;1.55;;;;;;;5.00;83.79;99585.25;4439043;32;34537;-65
2023/01/13 09:55:44;;;;;;;1.37;1.30;;;;;;;4.95;86.44;99580.00;4439057;32;33723;-79
2023/01/13 09:58:17;;;;;;;10.50;2.42;;;;;;;5.18;82.85;99579.50;4455461;32;33924;-66
2023/01/13 10:01:05;;;;;;;1.87;1.65;;;;;;;5.16;82.82;99582.03;4444126;32;35115;-81
2023/01/13 10:03:35;;;;;;;1.77;1.67;;;;;;;4.90;85.35;99584.22;4438793;32;34165;-81
2023/01/13 10:06:20;;;;;;;2.25;2.10;;;;;;;5.11;83.61;99589.72;4439967;32;34522;-80
2023/01/13 10:08:49;;;;;;;2.22;2.05;;;;;;;5.13;83.93;99580.31;4441710;32;34220;-64
2023/01/13 10:14:45;;;;;;;1.23;1.15;;;;;;;4.93;83.88;99584.28;4454960;32;34481;-64
2023/01/13 10:17:33;;;;;;;1.17;1.15;;;;;;;5.05;84.39;99587.06;4453129;32;33573;-71
2023/01/13 10:20:19;;;;;;;2.25;2.15;;;;;;;5.07;83.62;99592.25;4441554;32;34779;-64
2023/01/13 10:23:01;;;;;;;1.25;1.17;;;;;;;5.22;84.24;99592.44;4441631;32;36001;-78
2023/01/13 10:26:26;;;;;;;2.03;1.87;;;;;;;5.16;83.62;99592.38;4446527;32;35194;-66
2023/01/13 10:28:55;;;;;;;2.80;1.37;;;;;;;5.18;83.38;99592.41;4437291;32;33353;-65
2023/01/13 10:31:24;;;;;;;1.67;1.58;;;;;;;4.95;84.70;99587.75;4455124;32;33939;-64
2023/01/13 10:34:00;;;;;;;1.35;1.25;;;;;;;5.37;82.85;99585.78;4455477;32;34946;-64
2023/01/13 10:36:29;;;;;;;2.47;2.28;;;;;;;5.19;82.72;99582.09;4441005;32;32749;-66
2023/01/13 10:39:09;;;;;;;3.17;2.90;;;;;;;5.26;83.80;99583.06;4455320;32;33512;-65
2023/01/13 10:41:39;;;;;;;1.25;1.15;;;;;;;5.30;83.06;99569.34;4455078;32;33901;-65
2023/01/13 10:44:17;;;;;;;3.03;1.90;;;;;;;5.10;83.72;99564.75;4455150;32;35885;-64
2023/01/13 10:46:52;;;;;;;1.10;1.00;;;;;;;5.06;84.01;99554.34;4441818;32;35254;-81
2023/01/13 10:49:35;;;;;;;2.25;2.08;;;;;;;4.69;85.38;99549.47;4455085;32;33448;-65
2023/01/13 10:52:27;;;;;;;1.25;1.23;;;;;;;4.90;85.87;99548.09;4455335;32;33460;-65
2023/01/13 10:54:56;;;;;;;2.85;2.62;;;;;;;5.15;85.75;99548.47;4454894;32;35483;-73
2023/01/13 10:57:26;;;;;;;4.18;2.85;;;;;;;4.95;86.60;99551.63;4454734;32;35319;-64
2023/01/13 10:59:55;;;;;;;6.15;3.55;;;;;;;4.69;87.81;99539.16;4454912;32;33729;-64
2023/01/13 11:02:34;;;;;;;0.52;0.52;;;;;;;5.03;85.85;99534.53;4455182;32;34109;-68
2023/01/13 11:05:21;;;;;;;1.77;1.67;;;;;;;4.96;85.49;99532.72;4441082;32;34953;-66
2023/01/13 11:07:53;;;;;;;1.67;1.58;;;;;;;5.01;85.96;99525.03;4441439;32;35307;-73
2023/01/13 11:10:27;;;;;;;1.80;1.70;;;;;;;5.08;85.70;99529.44;4454831;32;33581;-66
2023/01/13 11:16:40;;;;;;;12.85;6.43;;;;;;;5.08;85.57;99516.53;4436128;32;35003;-79
2023/01/13 11:19:21;;;;;;;4.87;2.30;;;;;;;4.92;87.28;99510.28;4455123;32;34443;-67
2023/01/13 11:22:02;;;;;;;1.77;1.67;;;;;;;4.98;87.16;99514.66;4454817;32;34269;-65
2023/01/13 11:24:38;;;;;;;3.22;2.90;;;;;;;5.24;86.37;99507.28;4441147;32;34750;-65
2023/01/13 11:27:13;;;;;;;2.30;1.58;;;;;;;4.81;86.66;99504.09;4441275;32;35210;-64
2023/01/13 11:29:50;;;;;;;4.85;2.80;;;;;;;5.09;85.64;99502.78;4440752;32;35267;-79
2023/01/13 11:32:23;;;;;;;1.35;1.25;;;;;;;4.98;86.05;99504.34;4455014;32;33496;-82
2023/01/13 11:34:59;;;;;;;1.85;1.75;;;;;;;4.85;86.88;99504.19;4454633;32;33755;-65
2023/01/13 11:37:32;;;;;;;2.25;2.15;;;;;;;4.90;86.22;99505.09;4441257;32;35873;-78
2023/01/13 11:40:04;;;;;;;0.98;0.98;;;;;;;5.23;85.25;99503.84;4440748;32;35209;-64
2023/01/13 11:42:41;;;;;;;2.35;2.05;;;;;;;4.90;85.83;99501.66;4454998;32;34131;-64
2023/01/13 11:45:19;;;;;;;4.43;2.00;;;;;;;5.05;85.84;99508.75;4454561;32;33778;-65
2023/01/13 11:47:51;;;;;;;4.65;2.87;;;;;;;5.03;85.76;99497.53;4441054;32;34894;-65
2023/01/13 11:50:34;;;;;;;6.15;2.85;;;;;;;4.87;86.11;99496.44;4451105;32;34390;-64
2023/01/13 11:53:11;;;;;;;2.78;2.58;;;;;;;4.92;86.29;99487.06;4413349;32;33347;-65
2023/01/13 11:55:55;;;;;;;2.12;1.95;;;;;;;4.83;86.54;99479.19;4425661;32;33932;-85
2023/01/13 11:58:40;;;;;;;3.28;3.05;;;;;;;5.48;85.23;99479.19;4439985;32;36046;-80
2023/01/13 12:01:36;;;;;;;2.50;1.87;;;;;;;5.36;84.83;99470.44;4439458;32;34219;-68
2023/01/13 12:04:21;;;;;;;15.25;5.90;;;;;;;5.18;85.47;99465.91;4413753;32;32856;-86
2023/01/13 12:07:18;;;;;;;0.93;0.93;;;;;;;5.35;85.55;99456.66;4439892;32;33935;-83
2023/01/13 12:10:12;;;;;;;4.07;3.78;;;;;;;5.21;86.39;99451.31;4431743;32;36026;-81
2023/01/13 12:13:02;;;;;;;1.50;0.80;;;;;;;5.11;86.50;99434.84;4426140;32;34412;-81
2023/01/13 12:16:05;;;;;;;0.68;0.68;;;;;;;5.33;85.58;99435.13;4430355;32;33516;-83
2023/01/13 12:19:35;;;;;;;3.12;0.95;;;;;;;5.38;85.28;99430.84;4441847;32;34626;-84
2023/01/13 12:22:25;;;;;;;1.35;1.25;;;;;;;5.20;85.87;99421.19;4415246;32;35913;-87
2023/01/13 12:25:04;;;;;;;2.03;1.48;;;;;;;4.92;86.12;99423.44;4440566;32;34696;-89
2023/01/13 12:27:41;;;;;;;7.15;3.33;;;;;;;5.04;86.59;99427.88;4424752;32;34274;-84
2023/01/13 12:30:23;;;;;;;3.60;3.00;;;;;;;4.40;90.11;99430.41;4411548;32;34621;-85
2023/01/13 12:32:57;;;;;;;3.10;2.80;;;;;;;4.33;90.14;99420.84;4412094;32;34907;-84
2023/01/13 12:35:41;;;;;;;2.62;2.47;;;;;;;4.69;89.78;99417.94;4422851;32;34539;-75
2023/01/13 12:38:34;;;;;;;2.10;2.00;;;;;;;4.41;90.79;99419.25;4426060;32;34166;-82
2023/01/13 12:41:28;;;;;;;2.90;2.72;;;;;;;5.09;88.30;99417.62;4424950;32;34063;-83
2023/01/13 12:44:17;;;;;;;2.12;2.03;;;;;;;5.05;88.56;99415.84;4424388;32;35919;-78
2023/01/13 12:46:55;;;;;;;14.50;2.47;;;;;;;5.30;87.39;99411.84;4423230;32;35191;-81
2023/01/13 12:49:26;;;;;;;2.95;2.67;;;;;;;5.12;87.43;99421.09;4440034;32;33754;-80
2023/01/13 12:51:54;;;;;;;2.95;2.00;;;;;;;5.43;86.80;99426.62;4439408;32;34417;-88
2023/01/13 12:54:43;;;;;;;2.95;2.75;;;;;;;5.42;86.61;99424.91;4439044;32;34913;-85
2023/01/13 12:57:26;;;;;;;2.75;2.50;;;;;;;4.98;88.72;99414.00;4419666;32;35214;-88
2023/01/13 13:00:03;;;;;;;6.32;5.65;;;;;;;5.32;86.25;99407.56;4420684;32;33066;-84
2023/01/13 13:02:41;;;;;;;3.20;2.90;;;;;;;5.21;86.58;99406.59;4423649;32;33779;-84
2023/01/13 13:05:13;;;;;;;3.83;2.70;;;;;;;5.37;84.93;99415.38;4409533;32;35851;-86
2023/01/13 13:07:50;;;;;;;2.85;2.65;;;;;;;5.00;87.77;99426.09;4423556;32;34383;-86
2023/01/13 13:10:29;;;;;;;2.25;1.83;;;;;;;4.98;89.01;99421.75;4423450;32;33440;-87